createdAt,value
2018-06-15T00:01:40.349Z,4.63
2018-06-15T00:04:11.563Z,5.10
2018-06-15T00:06:47.142Z,4.77
2018-06-15T00:09:23.237Z,4.67
2018-06-15T00:11:56.408Z,4.93
2018-06-15T00:17:04.923Z,4.03
2018-06-15T00:19:35.601Z,4.87
2018-06-15T00:22:09.179Z,4.70
2018-06-15T00:24:43.513Z,4.23
2018-06-15T00:27:16.057Z,3.87
2018-06-15T00:29:47.802Z,4.50
2018-06-15T00:32:23.363Z,4.70
2018-06-15T00:35:00.173Z,4.80
2018-06-15T00:37:32.750Z,4.57
2018-06-15T00:40:06.976Z,4.43
2018-06-15T00:42:39.761Z,5.17
2018-06-15T00:45:15.085Z,5.07
2018-06-15T00:47:48.059Z,5.33
2018-06-15T00:50:22.971Z,4.83
2018-06-15T00:52:53.585Z,4.40
2018-06-15T00:55:28.015Z,4.53
2018-06-15T00:58:04.406Z,4.70
2018-06-15T01:00:36.798Z,4.73
2018-06-15T01:03:08.128Z,4.90
2018-06-15T01:05:36.950Z,5.30
2018-06-15T01:08:05.957Z,5.13
2018-06-15T01:10:34.890Z,4.90
2018-06-15T01:13:05.348Z,4.33
2018-06-15T01:15:40.723Z,4.93
2018-06-15T01:18:15.551Z,4.80
2018-06-15T01:20:47.877Z,5.37
2018-06-15T01:23:21.068Z,5.37
2018-06-15T01:25:52.199Z,5.03
2018-06-15T01:28:40.184Z,5.60
2018-06-15T01:31:13.264Z,5.07
2018-06-15T01:33:46.229Z,5.80
2018-06-15T01:36:16.573Z,5.53
2018-06-15T01:38:51.942Z,3.80
2018-06-15T01:41:24.560Z,4.40
2018-06-15T01:43:55.850Z,4.43
2018-06-15T01:46:29.264Z,4.90
2018-06-15T01:49:01.060Z,4.80
2018-06-15T01:51:32.485Z,4.47
2018-06-15T01:54:04.268Z,5.47
2018-06-15T01:56:36.976Z,5.07
2018-06-15T01:59:07.462Z,4.90
2018-06-15T02:01:37.742Z,5.23
2018-06-15T02:04:15.340Z,4.97
2018-06-15T02:06:46.892Z,4.60
2018-06-15T02:09:20.258Z,4.73
2018-06-15T02:11:52.348Z,6.10
2018-06-15T02:14:24.204Z,4.23
2018-06-15T02:16:53.058Z,4.83
2018-06-15T02:19:21.842Z,4.30
2018-06-15T02:21:50.754Z,4.53
2018-06-15T02:24:20.692Z,4.20
2018-06-15T02:26:52.039Z,4.83
2018-06-15T02:29:27.085Z,4.73
2018-06-15T02:31:57.093Z,4.93
2018-06-15T02:34:27.523Z,4.83
2018-06-15T02:37:03.502Z,4.50
2018-06-15T02:39:39.027Z,4.60
2018-06-15T02:42:12.124Z,4.30
2018-06-15T02:44:41.005Z,4.43
2018-06-15T02:47:09.815Z,5.53
2018-06-15T02:49:38.729Z,4.93
2018-06-15T02:52:08.088Z,4.80
2018-06-15T02:54:40.127Z,5.03
2018-06-15T02:57:16.732Z,4.60
2018-06-15T02:59:49.668Z,5.17
2018-06-15T03:02:24.232Z,5.47
2018-06-15T03:04:56.976Z,6.10
2018-06-15T03:10:03.098Z,4.90
2018-06-15T03:12:31.882Z,5.23
2018-06-15T03:15:00.819Z,4.50
2018-06-15T03:17:32.225Z,5.10
2018-06-15T03:20:04.400Z,5.20
2018-06-15T03:22:36.426Z,5.83
2018-06-15T03:25:08.659Z,5.30
2018-06-15T03:27:37.675Z,4.80
2018-06-15T03:30:06.675Z,4.87
2018-06-15T03:32:35.497Z,5.10
2018-06-15T03:35:04.892Z,4.87
2018-06-15T03:37:36.087Z,5.30
2018-06-15T03:40:07.503Z,5.60
2018-06-15T03:42:40.474Z,5.03
2018-06-15T03:45:09.396Z,4.50
2018-06-15T03:47:38.330Z,5.03
2018-06-15T03:50:07.146Z,4.40
2018-06-15T03:52:36.279Z,4.70
2018-06-15T03:55:09.164Z,4.37
2018-06-15T03:57:39.388Z,3.93
2018-06-15T04:00:10.190Z,4.93
2018-06-15T04:02:40.871Z,4.30
2018-06-15T04:05:09.726Z,4.40
2018-06-15T04:07:38.697Z,4.83
2018-06-15T04:10:07.598Z,4.43
2018-06-15T04:12:40.291Z,5.00
2018-06-15T04:15:11.691Z,4.73
2018-06-15T04:17:43.111Z,4.83
2018-06-15T04:20:15.254Z,4.47
2018-06-15T04:22:44.162Z,4.20
2018-06-15T04:25:13.005Z,4.27
2018-06-15T04:27:41.918Z,4.60
2018-06-15T04:30:13.039Z,4.57
2018-06-15T04:32:43.410Z,5.10
2018-06-15T04:35:13.529Z,3.90
2018-06-15T04:37:47.343Z,4.80
2018-06-15T04:40:16.098Z,4.10
2018-06-15T04:42:45.154Z,4.70
2018-06-15T04:45:14.192Z,4.70
2018-06-15T04:47:44.971Z,4.60
2018-06-15T04:50:16.061Z,4.40
2018-06-15T04:52:47.379Z,4.10
2018-06-15T04:55:19.677Z,5.23
2018-06-15T04:57:48.554Z,3.97
2018-06-15T05:00:17.358Z,4.13
2018-06-15T05:02:46.351Z,4.60
2018-06-15T05:05:16.643Z,4.03
2018-06-15T05:07:47.524Z,3.97
2018-06-15T05:10:20.563Z,4.17
2018-06-15T05:12:52.600Z,4.50
2018-06-15T05:15:21.453Z,4.50
2018-06-15T05:17:50.344Z,4.63
2018-06-15T05:20:19.468Z,4.50
2018-06-15T05:22:51.851Z,4.77
2018-06-15T05:25:25.877Z,5.03
2018-06-15T05:27:57.143Z,4.47
2018-06-15T05:30:27.419Z,4.90
2018-06-15T05:33:00.381Z,4.23
2018-06-15T05:35:32.062Z,5.80
2018-06-15T05:38:00.990Z,5.87
2018-06-15T05:40:29.869Z,4.87
2018-06-15T05:42:58.710Z,5.60
2018-06-15T05:45:29.170Z,5.30
2018-06-15T05:47:59.469Z,6.00
2018-06-15T05:50:31.481Z,5.57
2018-06-15T05:53:01.660Z,5.97
2018-06-15T05:55:32.919Z,5.33
2018-06-15T05:58:05.264Z,5.30
2018-06-15T06:00:34.066Z,4.80
2018-06-15T06:03:02.906Z,4.40
2018-06-15T06:05:31.873Z,4.57
2018-06-15T06:08:03.644Z,4.67
2018-06-15T06:10:35.971Z,4.57
2018-06-15T06:13:12.623Z,4.97
2018-06-15T06:21:20.360Z,4.07
2018-06-15T06:23:49.382Z,4.57
2018-06-15T06:26:18.374Z,5.20
2018-06-15T06:28:47.311Z,4.60
2018-06-15T06:31:17.088Z,4.03
2018-06-15T06:33:52.277Z,4.07
2018-06-15T06:39:17.172Z,4.50
2018-06-15T06:41:48.479Z,4.30
2018-06-15T06:44:22.951Z,4.57
2018-06-15T06:47:00.487Z,4.67
2018-06-15T06:52:15.407Z,3.53
2018-06-15T06:54:51.281Z,3.43
2018-06-15T06:57:27.954Z,3.37
2018-06-15T07:00:05.211Z,3.23
2018-06-15T07:02:39.310Z,3.80
2018-06-15T07:24:02.536Z,3.80
2018-06-15T07:26:52.226Z,3.57
2018-06-15T07:42:01.351Z,3.33
2018-06-15T07:44:44.539Z,3.43
2018-06-15T08:05:47.665Z,3.03
2018-06-15T08:08:20.515Z,2.53
2018-06-15T08:11:01.387Z,3.70
2018-06-15T08:13:32.755Z,3.80
2018-06-15T08:49:56.773Z,3.47
2018-06-15T11:08:12.380Z,1.50
2018-06-15T11:10:41.465Z,1.57
2018-06-15T11:13:10.622Z,1.17
2018-06-15T13:12:32.554Z,1.70
2018-06-15T13:15:02.835Z,1.57
2018-06-15T13:17:33.508Z,1.80
2018-06-15T13:53:44.194Z,1.63
2018-06-15T13:56:24.568Z,1.27
2018-06-15T14:20:33.652Z,1.10
2018-06-15T14:23:04.144Z,1.00
2018-06-15T14:25:34.053Z,1.30
2018-06-15T14:52:30.492Z,1.43
2018-06-15T14:55:02.215Z,1.33
2018-06-15T14:57:34.216Z,1.13
2018-06-15T15:18:23.030Z,1.57
2018-06-15T15:20:55.585Z,1.33
2018-06-15T15:23:26.090Z,1.30
2018-06-15T15:56:14.250Z,1.13
2018-06-15T15:58:43.286Z,1.37
2018-06-15T16:01:12.471Z,1.20
2018-06-15T16:03:44.639Z,1.30
2018-06-15T16:06:16.829Z,1.43
2018-06-15T16:08:48.301Z,1.80
2018-06-15T16:11:23.586Z,1.40
2018-06-15T16:13:54.248Z,1.20
2018-06-15T16:16:23.834Z,1.17
2018-06-15T16:18:55.420Z,1.30
2018-06-15T16:21:24.467Z,1.30
2018-06-15T16:24:04.004Z,1.30
2018-06-15T16:34:53.220Z,1.30
2018-06-15T16:37:22.237Z,1.27
2018-06-15T16:39:52.148Z,1.27
2018-06-15T16:42:21.349Z,1.23
2018-06-15T16:44:50.373Z,1.47
2018-06-15T16:47:21.685Z,1.27
2018-06-15T16:50:03.975Z,1.60
2018-06-15T16:58:11.242Z,1.33
2018-06-15T17:00:40.245Z,1.60
2018-06-15T17:03:09.343Z,1.80
2018-06-15T17:05:45.935Z,1.73
2018-06-15T17:25:47.471Z,1.63
2018-06-15T17:28:16.594Z,1.43
2018-06-15T17:30:46.075Z,1.40
2018-06-15T17:42:26.610Z,1.40
2018-06-15T17:44:55.678Z,1.10
2018-06-15T17:47:24.790Z,1.17
2018-06-15T17:49:57.722Z,1.43
2018-06-15T18:13:55.520Z,3.30
2018-06-15T18:16:24.702Z,2.30
2018-06-15T18:18:53.755Z,4.80
2018-06-15T18:45:46.380Z,1.93
2018-06-15T18:48:15.978Z,1.70
2018-06-15T18:50:45.257Z,1.53
2018-06-15T19:11:32.739Z,1.50
2018-06-15T19:14:01.789Z,1.63
2018-06-15T19:16:32.320Z,1.53
2018-06-15T19:34:15.355Z,1.90
2018-06-15T19:36:44.454Z,1.90
2018-06-15T19:39:13.565Z,1.80
2018-06-15T20:03:03.252Z,1.80
2018-06-15T20:05:33.339Z,1.60
2018-06-15T20:08:02.621Z,1.67
2018-06-15T20:28:57.094Z,1.77
2018-06-15T20:31:26.326Z,1.63
2018-06-15T20:34:12.606Z,1.90
2018-06-15T20:51:55.729Z,1.50
2018-06-15T20:54:24.835Z,1.90
2018-06-15T20:56:54.032Z,1.23
2018-06-15T21:14:36.867Z,1.57
2018-06-15T21:17:05.907Z,2.00
2018-06-15T21:19:35.068Z,2.50
2018-06-15T21:34:15.191Z,2.40
2018-06-15T21:36:44.390Z,1.60
2018-06-15T21:39:13.382Z,2.10
2018-06-15T21:56:54.130Z,3.00
2018-06-15T21:59:23.087Z,3.70
2018-06-15T22:01:52.329Z,2.80
2018-06-15T22:22:39.585Z,2.37
2018-06-15T22:25:08.668Z,2.87
2018-06-15T22:27:37.766Z,2.10
2018-06-15T22:42:18.590Z,2.60
2018-06-15T22:44:47.497Z,2.60
2018-06-15T22:47:16.508Z,1.93
2018-06-15T22:49:47.153Z,2.07
2018-06-15T23:13:37.296Z,2.10
2018-06-15T23:16:06.311Z,2.13
2018-06-15T23:18:35.420Z,2.40
2018-06-15T23:33:28.847Z,1.83
2018-06-15T23:35:57.879Z,1.87
2018-06-15T23:38:26.773Z,2.30
2018-06-15T23:55:41.703Z,2.30
2018-06-15T23:58:10.786Z,2.20
